Time;durP1;ratioP1;P1;durP2;ratioP2;P2;SDS_P1;SDS_P2;PMS_P1;PMS_P2;Temp;Humidity;BMP_temperature;BMP_pressure;BME280_temperature;BME280_humidity;BME280_pressure;Samples;Min_cycle;Max_cycle;Signal;HPM_P1;HPM_P2
2023/07/23 00:00:23;;;;;;;6.10;4.40;;;;;;;11.84;74.96;100350.67;104468;279;97947;-57
2023/07/23 00:03:17;;;;;;;5.70;4.40;;;;;;;11.81;75.09;100350.49;104057;279;121747;-57
2023/07/23 00:05:53;;;;;;;6.20;4.60;;;;;;;11.81;75.28;100352.91;104471;279;104532;-59
2023/07/23 00:08:26;;;;;;;4.80;4.10;;;;;;;11.78;75.29;100350.77;104080;279;115297;-59
2023/07/23 00:11:01;;;;;;;7.00;4.70;;;;;;;11.74;75.70;100345.65;104052;279;95544;-59
2023/07/23 00:13:35;;;;;;;6.70;4.70;;;;;;;11.71;75.63;100349.30;104069;279;98437;-59
2023/07/23 00:16:09;;;;;;;6.60;4.60;;;;;;;11.68;75.68;100344.89;104101;279;121601;-55
2023/07/23 00:18:43;;;;;;;6.90;4.60;;;;;;;11.63;75.92;100345.25;104089;279;105800;-55
2023/07/23 00:21:17;;;;;;;5.80;4.50;;;;;;;11.63;76.09;100343.39;104457;279;113571;-54
2023/07/23 00:23:52;;;;;;;6.80;4.80;;;;;;;11.61;76.13;100339.75;104051;279;95988;-54
2023/07/23 00:26:27;;;;;;;5.50;4.30;;;;;;;11.60;76.06;100337.25;104086;279;97310;-54
2023/07/23 00:29:01;;;;;;;6.30;4.80;;;;;;;11.59;76.22;100334.29;104091;279;119240;-55
2023/07/23 00:31:35;;;;;;;5.50;4.90;;;;;;;11.57;76.28;100326.95;104503;279;105808;-55
2023/07/23 00:34:10;;;;;;;6.10;4.70;;;;;;;11.53;76.41;100325.34;104477;279;114645;-59
2023/07/23 00:36:44;;;;;;;6.70;5.20;;;;;;;11.53;76.43;100326.11;104068;279;96588;-59
2023/07/23 00:39:18;;;;;;;5.70;4.90;;;;;;;11.49;76.57;100324.96;104475;279;97882;-55
2023/07/23 00:41:52;;;;;;;6.80;4.60;;;;;;;11.46;76.58;100326.11;104071;279;120200;-55
2023/07/23 00:44:26;;;;;;;5.60;4.50;;;;;;;11.44;76.81;100326.84;104073;279;103625;-59
2023/07/23 00:47:03;;;;;;;6.80;4.90;;;;;;;11.48;76.74;100332.52;104056;279;114519;-59
2023/07/23 00:49:37;;;;;;;7.90;4.40;;;;;;;11.46;76.65;100334.31;104099;279;97517;-57
2023/07/23 00:52:12;;;;;;;7.30;5.40;;;;;;;11.41;76.85;100332.52;104067;279;97811;-57
2023/07/23 00:54:47;;;;;;;5.30;4.30;;;;;;;11.35;76.88;100333.02;104074;279;119334;-56
2023/07/23 00:57:21;;;;;;;7.20;4.40;;;;;;;11.29;76.99;100328.61;104487;279;105937;-54
2023/07/23 00:59:56;;;;;;;6.70;5.00;;;;;;;11.24;77.03;100326.55;104065;279;114746;-54
2023/07/23 01:02:31;;;;;;;6.40;4.50;;;;;;;11.19;77.52;100322.40;104039;279;95377;-54
2023/07/23 01:05:07;;;;;;;5.80;5.00;;;;;;;11.18;77.40;100321.65;104496;279;98039;-54
2023/07/23 01:07:42;;;;;;;6.40;4.80;;;;;;;11.16;77.51;100320.46;104064;279;120366;-54
2023/07/23 01:10:17;;;;;;;8.30;5.10;;;;;;;11.13;77.68;100321.98;103821;281;104526;-54
2023/07/23 01:12:51;;;;;;;8.00;4.80;;;;;;;11.11;77.75;100319.59;104074;279;113458;-54
2023/07/23 01:15:26;;;;;;;7.90;4.90;;;;;;;11.08;77.99;100315.77;104478;279;97378;-59
2023/07/23 01:18:04;;;;;;;6.10;4.90;;;;;;;11.08;77.89;100317.43;104056;279;96331;-59
2023/07/23 01:20:37;;;;;;;7.20;4.70;;;;;;;11.07;77.88;100311.64;104073;279;119905;-57
2023/07/23 01:23:11;;;;;;;6.50;4.20;;;;;;;11.06;78.03;100315.35;104471;279;105897;-58
2023/07/23 01:25:45;;;;;;;6.20;5.20;;;;;;;11.09;78.20;100310.88;104057;279;113364;-59
2023/07/23 01:28:19;;;;;;;8.50;4.80;;;;;;;11.10;78.28;100310.89;104436;279;95845;-59
2023/07/23 01:30:55;;;;;;;7.10;4.80;;;;;;;11.07;78.26;100307.11;104489;279;97365;-58
2023/07/23 01:33:30;;;;;;;6.90;5.10;;;;;;;11.03;78.46;100304.16;104060;279;121180;-57
2023/07/23 01:36:02;;;;;;;;;;;;;;;11.00;78.44;100299.70;104084;279;104584;-57
2023/07/23 01:38:36;;;;;;;6.80;5.70;;;;;;;10.95;78.50;100296.95;104479;279;114879;-58
2023/07/23 01:41:11;;;;;;;8.50;5.60;;;;;;;10.89;78.64;100298.21;104057;279;96287;-54
2023/07/23 01:43:43;;;;;;;;;;;;;;;10.82;78.85;100300.05;104083;279;98506;-54
2023/07/23 01:46:17;;;;;;;9.00;5.40;;;;;;;10.78;78.90;100304.14;104053;279;121136;-54
2023/07/23 01:48:52;;;;;;;10.20;5.40;;;;;;;10.77;78.95;100307.61;104063;279;105457;-54
2023/07/23 01:51:24;;;;;;;;;;;;;;;10.73;79.03;100310.40;104023;279;114372;-58
2023/07/23 01:53:57;;;;;;;6.50;5.00;;;;;;;10.72;79.08;100312.89;103982;279;96693;-55
2023/07/23 01:56:31;;;;;;;7.20;4.50;;;;;;;10.75;79.38;100318.66;104011;279;97309;-54
2023/07/23 01:59:05;;;;;;;6.30;4.90;;;;;;;10.75;79.28;100316.24;104011;279;118948;-53
2023/07/23 02:01:39;;;;;;;5.90;4.70;;;;;;;10.73;79.32;100314.06;103991;279;105450;-54
2023/07/23 02:04:13;;;;;;;8.20;4.70;;;;;;;10.70;79.38;100315.98;103976;280;114790;-54
2023/07/23 02:06:47;;;;;;;6.30;4.80;;;;;;;10.68;79.48;100318.34;103974;279;96805;-54
2023/07/23 02:09:22;;;;;;;7.00;5.00;;;;;;;10.66;79.46;100313.86;104033;279;97037;-57
2023/07/23 02:11:56;;;;;;;6.10;5.00;;;;;;;10.61;79.69;100311.28;104387;279;120862;-57
2023/07/23 02:14:30;;;;;;;7.40;5.20;;;;;;;10.62;79.57;100314.58;103990;279;105752;-57
2023/07/23 02:17:03;;;;;;;;;;;;;;;10.61;79.61;100318.34;104403;279;114640;-57
2023/07/23 02:19:37;;;;;;;7.80;5.10;;;;;;;10.57;79.82;100314.56;104408;279;95171;-59
2023/07/23 02:22:10;;;;;;;;;;;;;;;10.54;79.99;100320.21;103982;279;97810;-59
2023/07/23 02:24:44;;;;;;;7.50;4.90;;;;;;;10.49;80.14;100318.48;104007;279;120592;-59
2023/07/23 02:27:18;;;;;;;6.40;4.80;;;;;;;10.46;80.14;100319.42;103996;279;105114;-59
2023/07/23 02:29:51;;;;;;;;;;;;;;;10.45;80.38;100318.65;103998;279;113856;-60
2023/07/23 02:32:25;;;;;;;6.70;5.10;;;;;;;10.40;80.34;100317.64;104413;279;97156;-60
2023/07/23 02:35:00;;;;;;;7.40;4.90;;;;;;;10.38;80.43;100317.50;104024;279;97327;-60
2023/07/23 02:37:33;;;;;;;7.40;5.00;;;;;;;10.38;80.53;100319.66;104380;280;119714;-59
2023/07/23 02:40:10;;;;;;;7.30;4.70;;;;;;;10.38;80.55;100312.10;104000;279;105492;-54
2023/07/23 02:42:44;;;;;;;7.00;5.20;;;;;;;10.37;80.75;100312.13;104422;279;113088;-54
2023/07/23 02:45:18;;;;;;;5.70;4.90;;;;;;;10.35;80.73;100308.58;103965;279;96766;-59
2023/07/23 02:47:52;;;;;;;6.60;4.60;;;;;;;10.36;80.93;100310.00;104021;279;97315;-59
2023/07/23 02:50:26;;;;;;;6.30;4.80;;;;;;;10.39;81.12;100308.73;103981;279;120106;-60
2023/07/23 02:53:00;;;;;;;6.70;4.60;;;;;;;10.40;81.13;100308.39;104012;279;106015;-59
2023/07/23 02:55:34;;;;;;;6.10;4.80;;;;;;;10.45;81.01;100309.14;103994;279;114168;-55
2023/07/23 02:58:07;;;;;;;;;;;;;;;10.50;81.23;100310.58;103998;279;97466;-55
2023/07/23 03:00:40;;;;;;;7.10;4.50;;;;;;;10.52;81.13;100310.85;104000;279;98036;-55
2023/07/23 03:03:14;;;;;;;7.50;5.00;;;;;;;10.58;81.15;100307.55;104390;279;119992;-55
2023/07/23 03:05:48;;;;;;;6.30;4.80;;;;;;;10.61;81.03;100310.27;104007;279;106058;-55
2023/07/23 03:08:22;;;;;;;8.40;4.80;;;;;;;10.64;81.20;100311.36;104003;279;114788;-55
2023/07/23 03:10:56;;;;;;;5.80;4.80;;;;;;;10.72;80.96;100309.81;104045;279;92347;-55
2023/07/23 03:13:30;;;;;;;6.40;4.70;;;;;;;10.80;81.14;100308.48;104025;279;97300;-55
2023/07/23 03:16:05;;;;;;;5.50;4.30;;;;;;;10.86;81.18;100307.67;104425;279;120374;-58
2023/07/23 03:18:39;;;;;;;6.20;5.00;;;;;;;10.90;81.02;100307.48;104025;279;105953;-57
2023/07/23 03:21:14;;;;;;;7.30;4.60;;;;;;;10.98;80.98;100310.77;104028;279;113049;-55
2023/07/23 03:23:50;;;;;;;5.50;4.60;;;;;;;11.09;81.15;100306.70;103745;279;96865;-55
2023/07/23 03:26:24;;;;;;;7.10;4.90;;;;;;;11.16;81.00;100302.70;104047;279;96582;-59
2023/07/23 03:28:58;;;;;;;6.30;4.50;;;;;;;11.23;81.04;100299.93;104449;279;118746;-59
2023/07/23 03:31:32;;;;;;;5.90;4.40;;;;;;;11.36;80.98;100290.45;104042;279;105268;-59
2023/07/23 03:34:06;;;;;;;6.80;5.00;;;;;;;11.53;80.98;100289.29;103963;279;113142;-55
2023/07/23 03:36:40;;;;;;;6.90;5.00;;;;;;;11.66;80.79;100288.29;103975;279;97025;-56
2023/07/23 03:39:17;;;;;;;6.20;4.70;;;;;;;11.80;80.78;100293.27;103980;279;97452;-55
2023/07/23 03:41:52;;;;;;;8.90;6.10;;;;;;;11.97;80.68;100296.08;104402;279;120384;-55
2023/07/23 03:44:26;;;;;;;8.10;6.70;;;;;;;12.12;80.54;100295.05;104417;279;106017;-54
2023/07/23 03:47:13;;;;;;;8.40;6.70;;;;;;;12.37;80.45;100292.56;104402;279;113160;-54
2023/07/23 03:49:48;;;;;;;9.00;6.60;;;;;;;13.48;79.86;100286.77;104428;279;96338;-58
2023/07/23 03:52:22;;;;;;;7.70;6.70;;;;;;;14.83;78.58;100287.81;103967;279;97397;-58
2023/07/23 03:54:56;;;;;;;7.90;6.60;;;;;;;16.07;76.80;100286.30;103962;279;118636;-56
2023/07/23 03:57:30;;;;;;;8.40;6.40;;;;;;;16.55;75.54;100286.67;104420;279;103477;-56
2023/07/23 04:00:05;;;;;;;7.40;6.70;;;;;;;17.16;74.25;100284.80;103957;279;113470;-60
2023/07/23 04:02:41;;;;;;;6.40;5.70;;;;;;;17.98;73.03;100283.09;104417;279;93898;-60
2023/07/23 04:05:15;;;;;;;7.30;6.30;;;;;;;18.81;71.03;100282.07;103998;279;97744;-59
2023/07/23 04:07:48;;;;;;;;;;;;;;;19.45;69.41;100279.31;104467;279;120802;-58
2023/07/23 04:10:22;;;;;;;8.60;6.90;;;;;;;19.70;68.56;100280.52;103973;279;104986;-56
2023/07/23 04:12:54;;;;;;;;;;;;;;;19.62;67.52;100279.97;103755;280;114162;-55
2023/07/23 04:15:28;;;;;;;10.20;8.30;;;;;;;20.20;66.45;100278.48;104004;279;94329;-56
2023/07/23 04:18:03;;;;;;;8.30;7.50;;;;;;;21.15;64.57;100278.77;104037;279;96949;-56
2023/07/23 04:20:37;;;;;;;8.40;7.00;;;;;;;21.47;62.70;100275.98;104053;279;120309;-59
2023/07/23 04:23:11;;;;;;;10.10;7.80;;;;;;;20.72;62.09;100280.55;104031;279;104408;-58
2023/07/23 04:25:45;;;;;;;7.60;6.70;;;;;;;19.71;62.07;100283.49;104039;279;114713;-58
2023/07/23 04:28:19;;;;;;;8.10;6.60;;;;;;;18.97;62.62;100285.98;104424;279;93568;-58
2023/07/23 04:30:53;;;;;;;7.40;6.50;;;;;;;18.49;62.95;100289.12;104031;280;98044;-55
2023/07/23 04:33:27;;;;;;;7.80;6.30;;;;;;;18.09;63.02;100290.08;104007;279;120355;-55
2023/07/23 04:36:01;;;;;;;11.30;6.70;;;;;;;17.94;63.40;100289.37;104054;279;104355;-55
2023/07/23 04:38:35;;;;;;;6.80;5.20;;;;;;;18.04;63.18;100293.79;103991;279;113744;-55
2023/07/23 04:41:09;;;;;;;5.80;4.90;;;;;;;17.82;63.23;100290.17;104017;279;94110;-55
2023/07/23 04:43:44;;;;;;;6.60;5.00;;;;;;;17.64;63.52;100299.29;104047;279;96426;-55
2023/07/23 04:46:19;;;;;;;5.10;4.40;;;;;;;17.54;63.39;100301.48;104018;279;121027;-58
2023/07/23 04:48:54;;;;;;;6.30;4.40;;;;;;;17.45;63.50;100301.30;103827;280;103600;-58
2023/07/23 04:51:28;;;;;;;6.10;5.10;;;;;;;17.45;63.49;100299.27;104454;280;114056;-60
2023/07/23 04:54:03;;;;;;;4.90;4.40;;;;;;;17.48;63.55;100295.53;103991;279;95014;-56
2023/07/23 04:56:38;;;;;;;8.00;4.70;;;;;;;17.51;63.50;100291.41;103994;279;97190;-56
2023/07/23 04:59:13;;;;;;;6.70;4.60;;;;;;;18.26;63.50;100283.36;103704;280;119741;-56
2023/07/23 05:01:46;;;;;;;4.60;4.10;;;;;;;20.32;61.80;100277.44;104460;279;104059;-54
2023/07/23 05:04:20;;;;;;;4.60;4.20;;;;;;;22.52;59.60;100272.13;104018;279;113825;-57
2023/07/23 05:06:54;;;;;;;5.90;4.20;;;;;;;24.26;57.45;100268.89;104026;279;94698;-57
2023/07/23 05:09:28;;;;;;;6.60;3.90;;;;;;;25.23;55.09;100270.58;104051;279;98176;-55
2023/07/23 05:12:00;;;;;;;;;;;;;;;25.50;54.11;100270.96;104453;279;121191;-55
2023/07/23 05:14:35;;;;;;;;;;;;;;;26.23;52.73;100263.29;104031;279;105546;-55
2023/07/23 05:17:07;;;;;;;;;;;;;;;27.15;50.89;100262.02;103987;279;113496;-55
2023/07/23 05:19:40;;;;;;;;;;;;;;;27.01;49.55;100259.63;103499;279;413133;-54
2023/07/23 05:22:12;;;;;;;;;;;;;;;26.41;49.01;100258.46;104007;280;97938;-54
2023/07/23 05:24:44;;;;;;;;;;;;;;;25.95;48.58;100268.14;103984;279;120963;-56
2023/07/23 05:27:17;;;;;;;;;;;;;;;25.72;48.19;100270.05;104023;280;105419;-56
2023/07/23 05:29:50;;;;;;;;;;;;;;;26.00;47.82;100269.58;104031;279;115808;-56
2023/07/23 05:32:22;;;;;;;;;;;;;;;26.55;47.69;100269.98;104053;279;94196;-56
2023/07/23 05:34:54;;;;;;;;;;;;;;;27.05;46.64;100271.73;104064;279;96615;-55
2023/07/23 05:37:27;;;;;;;;;;;;;;;27.31;46.11;100265.64;103756;279;118915;-54
2023/07/23 05:40:03;;;;;;;;;;;;;;;27.89;45.33;100262.92;104489;279;103758;-57
2023/07/23 05:42:35;;;;;;;;;;;;;;;27.20;44.79;100261.92;104046;279;113301;-57
2023/07/23 05:45:10;;;;;;;;;;;;;;;26.37;45.01;100262.02;104056;279;93428;-54
2023/07/23 05:47:46;;;;;;;;;;;;;;;25.54;45.53;100261.36;104465;279;96766;-54
2023/07/23 05:50:19;;;;;;;;;;;;;;;24.83;45.74;100262.66;104044;279;119665;-54
2023/07/23 05:52:52;;;;;;;;;;;;;;;24.25;46.24;100257.83;104043;279;104252;-54
2023/07/23 05:55:26;;;;;;;;;;;;;;;24.08;47.02;100256.21;104007;279;116078;-57
2023/07/23 05:57:59;;;;;;;;;;;;;;;24.01;47.75;100253.25;104017;279;94685;-56
2023/07/23 06:00:32;;;;;;;;;;;;;;;24.11;47.70;100253.58;104082;279;96785;-58
2023/07/23 06:03:10;;;;;;;;;;;;;;;24.09;47.74;100253.73;104048;279;119972;-58
2023/07/23 06:05:42;;;;;;;;;;;;;;;23.90;48.14;100257.27;103988;279;107462;-60
2023/07/23 06:08:15;;;;;;;;;;;;;;;23.94;48.15;100254.21;104054;279;114829;-61
2023/07/23 06:10:47;;;;;;;;;;;;;;;24.02;47.78;100251.37;104428;279;94210;-60
2023/07/23 06:13:19;;;;;;;;;;;;;;;23.89;48.09;100252.95;104422;279;96376;-60
2023/07/23 06:15:52;;;;;;;;;;;;;;;23.89;47.91;100250.20;104016;280;120337;-55
2023/07/23 06:18:24;;;;;;;;;;;;;;;23.94;48.16;100246.31;104031;280;104140;-54
2023/07/23 06:20:57;;;;;;;;;;;;;;;24.30;47.93;100241.52;104401;279;114932;-54
2023/07/23 06:23:29;;;;;;;;;;;;;;;25.33;48.16;100244.01;104064;279;94495;-57
2023/07/23 06:26:02;;;;;;;;;;;;;;;27.55;46.26;100236.34;104080;279;96427;-55
2023/07/23 06:28:34;;;;;;;;;;;;;;;29.43;43.91;100231.84;104059;279;120201;-55
2023/07/23 06:31:07;;;;;;;;;;;;;;;31.15;42.28;100226.45;104008;279;105381;-54
2023/07/23 06:33:39;;;;;;;;;;;;;;;32.39;39.96;100224.06;104004;279;113052;-55
2023/07/23 06:36:12;;;;;;;;;;;;;;;33.22;38.59;100230.74;104021;279;94765;-61
2023/07/23 06:38:45;;;;;;;;;;;;;;;33.21;36.64;100223.98;104033;279;97433;-61
2023/07/23 06:41:18;;;;;;;;;;;;;;;33.21;36.18;100220.61;104036;279;120205;-55
2023/07/23 06:43:51;;;;;;;;;;;;;;;34.04;35.24;100217.27;103751;279;107649;-55
2023/07/23 06:46:23;;;;;;;;;;;;;;;34.39;33.56;100215.38;104415;279;112921;-58
2023/07/23 06:49:01;;;;;;;;;;;;;;;34.03;32.92;100215.79;104025;279;93313;-57
2023/07/23 06:51:34;;;;;;;;;;;;;;;32.94;32.94;100209.20;104015;279;97203;-60
2023/07/23 06:54:07;;;;;;;;;;;;;;;31.92;33.38;100209.52;104042;279;120956;-55
2023/07/23 06:56:39;;;;;;;;;;;;;;;31.06;33.81;100209.34;104052;279;103714;-55
2023/07/23 06:59:12;;;;;;;;;;;;;;;30.09;34.75;100212.02;104421;279;114302;-56
2023/07/23 07:01:45;;;;;;;;;;;;;;;29.73;35.60;100212.52;104056;279;93106;-56
2023/07/23 07:04:17;;;;;;;;;;;;;;;29.99;35.50;100215.39;104044;279;97469;-58
2023/07/23 07:06:50;;;;;;;;;;;;;;;29.47;35.70;100217.36;104060;279;121059;-58
2023/07/23 07:09:22;;;;;;;;;;;;;;;29.32;35.89;100216.52;104033;279;104934;-55
2023/07/23 07:11:55;;;;;;;;;;;;;;;29.71;36.00;100216.56;104071;280;114512;-54
2023/07/23 07:14:28;;;;;;;;;;;;;;;30.37;35.20;100206.02;104028;279;94759;-60
2023/07/23 07:17:01;;;;;;;;;;;;;;;30.88;34.83;100201.40;104104;279;96264;-61
2023/07/23 07:19:34;;;;;;;;;;;;;;;31.87;33.99;100205.50;104060;279;119657;-60
2023/07/23 07:22:08;;;;;;;;;;;;;;;33.11;33.02;100202.18;104068;279;105063;-61
2023/07/23 07:24:40;;;;;;;;;;;;;;;34.19;31.80;100202.14;103729;279;113404;-56
2023/07/23 07:27:14;;;;;;;;;;;;;;;33.84;30.48;100198.08;104019;279;93673;-55
2023/07/23 07:29:47;;;;;;;;;;;;;;;32.53;31.01;100196.60;104076;279;96228;-58
2023/07/23 07:32:20;;;;;;;;;;;;;;;31.38;31.54;100198.80;104005;279;118688;-59
2023/07/23 07:34:52;;;;;;;;;;;;;;;30.51;31.70;100194.33;104052;280;106614;-55
2023/07/23 07:37:25;;;;;;;;;;;;;;;29.97;32.49;100192.99;104059;279;113638;-55
2023/07/23 07:39:58;;;;;;;;;;;;;;;29.86;33.11;100191.59;104423;279;94207;-60
2023/07/23 07:42:31;;;;;;;;;;;;;;;30.54;33.00;100186.58;103973;279;97137;-58
2023/07/23 07:45:04;;;;;;;;;;;;;;;31.68;32.35;100181.95;103939;279;119370;-55
2023/07/23 07:47:36;;;;;;;;;;;;;;;32.99;31.61;100181.20;104006;279;105235;-54
2023/07/23 07:50:09;;;;;;;;;;;;;;;33.96;30.85;100173.10;103762;281;117736;-55
2023/07/23 07:52:42;;;;;;;;;;;;;;;34.24;30.34;100173.06;104392;279;95046;-60
2023/07/23 07:55:14;;;;;;;;;;;;;;;34.22;29.74;100173.73;103976;279;97106;-55
2023/07/23 07:57:48;;;;;;;;;;;;;;;33.92;29.48;100169.26;103966;279;121039;-55
2023/07/23 08:00:22;;;;;;;;;;;;;;;33.22;29.32;100175.47;103983;279;105540;-61
2023/07/23 08:02:57;;;;;;;;;;;;;;;32.45;29.46;100166.67;103970;279;114385;-61
2023/07/23 08:05:34;;;;;;;;;;;;;;;31.89;29.85;100168.48;103726;281;95514;-62
2023/07/23 08:08:10;;;;;;;;;;;;;;;31.69;30.22;100161.49;103765;281;99419;-61
2023/07/23 08:10:46;;;;;;;;;;;;;;;32.26;30.66;100160.07;103983;280;119587;-65
2023/07/23 08:13:19;;;;;;;;;;;;;;;33.01;29.89;100159.40;103993;280;105041;-67
2023/07/23 08:15:51;;;;;;;;;;;;;;;32.86;29.46;100152.92;104417;280;113125;-66
2023/07/23 08:18:25;;;;;;;;;;;;;;;32.78;29.27;100148.30;104004;284;93995;-66
2023/07/23 08:20:59;;;;;;;;;;;;;;;32.58;29.44;100147.63;104008;280;97850;-66
2023/07/23 08:23:33;;;;;;;;;;;;;;;32.30;29.16;100146.65;103822;281;120010;-67
2023/07/23 08:26:07;;;;;;;;;;;;;;;32.38;29.06;100140.83;103992;280;104071;-65
2023/07/23 08:28:45;;;;;;;;;;;;;;;32.90;28.97;100139.18;103972;280;114956;-65
2023/07/23 08:31:19;;;;;;;;;;;;;;;33.69;28.83;100132.70;103830;280;96272;-64
2023/07/23 08:33:53;;;;;;;;;;;;;;;33.30;28.02;100131.00;103990;280;96233;-65
2023/07/23 08:36:26;;;;;;;;;;;;;;;32.38;28.06;100130.86;103976;280;120777;-61
2023/07/23 08:39:00;;;;;;;;;;;;;;;31.82;28.48;100130.18;103986;280;104988;-62
2023/07/23 08:41:43;;;;;;;;;;;;;;;31.51;29.05;100127.37;103925;281;112249;-62
2023/07/23 08:44:57;;;;;;;;;;;;;;;31.39;29.09;100126.20;103944;284;92908;-62
2023/07/23 08:47:31;;;;;;;;;;;;;;;31.07;29.09;100119.77;103694;280;97569;-60
2023/07/23 08:50:04;;;;;;;;;;;;;;;30.96;29.43;100120.31;104397;280;120043;-59
2023/07/23 08:52:38;;;;;;;;;;;;;;;31.13;30.05;100123.85;103776;280;104572;-59
2023/07/23 08:55:11;;;;;;;;;;;;;;;30.94;29.99;100127.30;104402;280;113860;-55
2023/07/23 08:57:44;;;;;;;;;;;;;;;31.01;30.19;100119.73;104405;280;95489;-55
2023/07/23 09:00:17;;;;;;;;;;;;;;;31.15;29.90;100118.11;103972;280;97712;-56
2023/07/23 09:02:50;;;;;;;;;;;;;;;30.80;30.07;100119.98;103992;280;120385;-56
2023/07/23 09:05:23;;;;;;;;;;;;;;;30.52;30.04;100113.67;104012;280;104647;-68
2023/07/23 09:07:57;;;;;;;;;;;;;;;30.53;30.55;100109.34;104001;279;113958;-64
2023/07/23 09:10:30;;;;;;;;;;;;;;;30.68;30.52;100103.33;104010;279;94513;-65
2023/07/23 09:13:11;;;;;;;;;;;;;;;30.68;30.48;100106.02;104422;279;98260;-65
2023/07/23 09:15:53;;;;;;;;;;;;;;;30.63;30.34;100106.05;104068;279;120682;-64
2023/07/23 09:18:26;;;;;;;;;;;;;;;30.87;30.38;100105.70;104072;279;104727;-65
2023/07/23 09:20:58;;;;;;;;;;;;;;;31.03;30.20;100105.33;104018;279;115032;-66
2023/07/23 09:23:30;;;;;;;;;;;;;;;31.07;30.33;100094.42;104433;279;94527;-66
2023/07/23 09:26:03;;;;;;;;;;;;;;;31.39;30.25;100098.13;104479;279;97554;-62
2023/07/23 09:28:36;;;;;;;;;;;;;;;31.64;30.25;100091.26;104036;279;120892;-66
2023/07/23 09:31:10;;;;;;;;;;;;;;;31.82;30.08;100089.16;104018;279;104493;-67
2023/07/23 09:33:42;;;;;;;;;;;;;;;31.74;30.29;100082.75;104436;279;115024;-69
2023/07/23 09:36:15;;;;;;;;;;;;;;;31.20;30.13;100087.70;104044;279;93670;-67
2023/07/23 09:38:53;;;;;;;;;;;;;;;30.82;30.69;100084.27;104053;279;96986;-67
2023/07/23 09:41:28;;;;;;;;;;;;;;;30.70;30.44;100081.83;104039;279;121750;-67
2023/07/23 09:44:06;;;;;;;;;;;;;;;30.63;30.21;100079.27;104057;279;106449;-67
2023/07/23 09:46:39;;;;;;;;;;;;;;;30.50;30.55;100074.93;104058;279;114496;-67
2023/07/23 09:49:13;;;;;;;;;;;;;;;30.53;30.91;100075.07;104417;279;93478;-68
2023/07/23 09:51:53;;;;;;;;;;;;;;;30.78;31.25;100069.44;104054;279;96602;-66
2023/07/23 09:54:26;;;;;;;;;;;;;;;30.95;31.47;100065.59;103733;279;121511;-60
2023/07/23 09:56:59;;;;;;;;;;;;;;;31.01;31.59;100064.40;103796;281;105382;-59
2023/07/23 09:59:33;;;;;;;;;;;;;;;30.92;30.82;100057.22;104026;279;113719;-55
2023/07/23 10:02:09;;;;;;;;;;;;;;;30.63;31.06;100053.56;104063;279;93758;-55
2023/07/23 10:04:42;;;;;;;;;;;;;;;30.81;31.57;100050.66;104082;279;96293;-55
2023/07/23 10:07:15;;;;;;;;;;;;;;;30.95;31.60;100050.92;104441;268;119597;-55
2023/07/23 10:09:49;;;;;;;;;;;;;;;30.93;31.44;100049.97;104039;279;103597;-56
2023/07/23 10:12:22;;;;;;;;;;;;;;;30.96;31.24;100042.02;104025;279;114331;-54
2023/07/23 10:14:54;;;;;;;;;;;;;;;30.80;30.97;100041.70;104059;279;95004;-58
2023/07/23 10:17:28;;;;;;;;;;;;;;;30.46;31.23;100046.16;104452;279;95253;-58
2023/07/23 10:20:01;;;;;;;;;;;;;;;30.26;30.75;100035.88;104048;279;119304;-55
2023/07/23 10:22:37;;;;;;;;;;;;;;;30.20;30.98;100030.74;104451;279;104275;-55
2023/07/23 10:25:31;;;;;;;;;;;;;;;30.25;31.06;100031.45;104470;279;112642;-54
2023/07/23 10:28:06;;;;;;;;;;;;;;;30.27;30.90;100024.18;103745;279;94401;-54
2023/07/23 10:30:42;;;;;;;;;;;;;;;30.25;30.62;100019.06;103781;285;96196;-59
2023/07/23 10:33:32;;;;;;;;;;;;;;;30.13;30.70;100018.48;103995;279;120094;-56
2023/07/23 10:36:05;;;;;;;;;;;;;;;29.82;30.86;100015.50;104082;279;104769;-54
2023/07/23 10:38:39;;;;;;;;;;;;;;;29.75;31.26;100011.11;103998;279;113417;-53
2023/07/23 10:41:11;;;;;;;;;;;;;;;29.73;31.28;100006.46;104425;279;92329;-57
2023/07/23 10:43:46;;;;;;;;;;;;;;;29.71;31.44;100005.19;104057;279;98169;-58
2023/07/23 10:46:21;;;;;;;;;;;;;;;29.72;31.37;99996.08;103759;281;119843;-56
2023/07/23 10:48:55;;;;;;;;;;;;;;;29.63;31.50;99994.15;104064;279;105262;-57
2023/07/23 10:51:27;;;;;;;;;;;;;;;29.30;31.70;99996.75;104040;279;115180;-58
2023/07/23 10:54:05;;;;;;;;;;;;;;;28.93;31.81;99992.30;104462;279;92264;-55
2023/07/23 10:56:39;;;;;;;;;;;;;;;28.57;32.11;99996.94;104048;279;97167;-54
2023/07/23 10:59:14;;;;;;;;;;;;;;;28.20;32.16;99997.15;104057;279;120449;-56
2023/07/23 11:01:50;;;;;;;;;;;;;;;28.06;32.71;99994.45;104464;279;104241;-56
2023/07/23 11:04:27;;;;;;;;;;;;;;;27.92;33.04;99994.14;104065;279;114362;-55
2023/07/23 11:07:04;;;;;;;;;;;;;;;27.71;33.25;99995.30;104025;279;94053;-56
2023/07/23 11:09:38;;;;;;;;;;;;;;;27.48;33.45;99993.69;103788;279;98397;-55
2023/07/23 11:12:11;;;;;;;;;;;;;;;27.24;33.92;99992.62;104057;279;120199;-55
2023/07/23 11:14:43;;;;;;;;;;;;;;;27.06;34.09;99989.40;104464;279;105001;-56
2023/07/23 11:17:16;;;;;;;;;;;;;;;26.90;34.45;99988.94;104429;279;113438;-57
2023/07/23 11:19:50;;;;;;;;;;;;;;;26.67;34.82;99992.27;104056;279;94505;-54
2023/07/23 11:22:22;;;;;;;;;;;;;;;26.53;35.23;99987.21;104079;279;97435;-54
2023/07/23 11:24:54;;;;;;;;;;;;;;;26.48;35.42;99991.36;104428;279;119848;-54
2023/07/23 11:27:27;;;;;;;;;;;;;;;26.39;35.48;99990.05;104064;279;105321;-53
2023/07/23 11:29:59;;;;;;;;;;;;;;;26.29;35.59;99987.52;104054;279;114531;-57
2023/07/23 11:32:33;;;;;;;;;;;;;;;26.15;35.82;99987.09;104079;279;95818;-57
2023/07/23 11:35:06;;;;;;;;;;;;;;;26.10;35.71;99981.32;103780;281;97644;-56
2023/07/23 11:37:46;;;;;;;;;;;;;;;26.10;35.84;99984.65;104026;279;120420;-56
2023/07/23 11:40:24;;;;;;;;;;;;;;;26.12;36.28;99985.89;104032;279;104820;-54
2023/07/23 11:42:57;;;;;;;;;;;;;;;26.09;36.21;99983.44;103798;280;112712;-54
2023/07/23 11:45:29;;;;;;;;;;;;;;;26.04;36.22;99983.80;104424;279;95172;-54
2023/07/23 11:48:01;;;;;;;;;;;;;;;25.96;36.12;99978.40;104003;279;96326;-54
2023/07/23 11:50:33;;;;;;;;;;;;;;;25.82;36.53;99985.81;104492;279;121456;-57
2023/07/23 11:53:06;;;;;;;;;;;;;;;25.66;37.48;99996.89;104007;279;103312;-57
2023/07/23 11:55:39;;;;;;;;;;;;;;;25.54;38.78;99998.70;103984;279;113902;-57
2023/07/23 11:58:18;;;;;;;;;;;;;;;25.35;40.15;99992.48;103957;279;93392;-57
2023/07/23 12:00:50;;;;;;;;;;;;;;;25.11;40.47;99996.30;104007;279;96520;-54
2023/07/23 12:03:23;;;;;;;;;;;;;;;24.92;40.97;100003.89;103972;279;120725;-54
2023/07/23 12:05:56;;;;;;;;;;;;;;;24.82;41.68;99996.18;104010;279;104401;-54
2023/07/23 12:08:30;;;;;;;;;;;;;;;24.77;42.77;99987.73;103976;279;114208;-54
2023/07/23 12:11:09;;;;;;;;;;;;;;;24.65;43.00;99977.23;104455;279;92547;-65
2023/07/23 12:13:47;;;;;;;;;;;;;;;24.59;43.37;99968.16;103987;279;97088;-66
2023/07/23 12:16:37;;;;;;;;;;;;;;;24.61;44.47;99967.42;104426;279;120283;-67
2023/07/23 12:19:14;;;;;;;;;;;;;;;24.67;44.68;99958.86;103994;280;106221;-63
2023/07/23 12:21:48;;;;;;;;;;;;;;;24.74;43.80;99952.16;103993;279;114475;-62
2023/07/23 12:24:22;;;;;;;;;;;;;;;24.80;44.51;99951.99;104432;279;94013;-63
2023/07/23 12:26:55;;;;;;;;;;;;;;;24.98;45.24;99952.12;104006;279;97018;-63
2023/07/23 12:29:29;;;;;;;;;;;;;;;25.12;45.95;99946.36;103997;279;120576;-65
2023/07/23 12:32:13;;;;;;;;;;;;;;;25.27;47.33;99945.89;104450;279;104854;-64
2023/07/23 12:34:46;;;;;;;;;;;;;;;25.40;47.29;99940.45;104007;279;112943;-65
2023/07/23 12:37:20;;;;;;;;;;;;;;;25.58;47.08;99937.36;104513;278;96129;-64